Time;durP1;ratioP1;P1;durP2;ratioP2;P2;SDS_P1;SDS_P2;PMS_P1;PMS_P2;Temp;Humidity;BMP_temperature;BMP_pressure;BME280_temperature;BME280_humidity;BME280_pressure;Samples;Min_cycle;Max_cycle;Signal;HPM_P1;HPM_P2
2022/01/03 00:00:32;;;;;;;3.50;1.52;;;;;;;10.94;60.01;97448.69;5044916;28;20057;-64
2022/01/03 00:03:02;;;;;;;2.50;0.88;;;;;;;11.04;59.46;97448.81;5027869;28;20072;-63
2022/01/03 00:05:29;;;;;;;4.45;1.30;;;;;;;11.03;59.52;97451.78;5010482;28;20030;-63
2022/01/03 00:07:57;;;;;;;3.42;0.95;;;;;;;10.99;59.67;97443.31;5040520;28;20505;-62
2022/01/03 00:10:25;;;;;;;3.15;0.80;;;;;;;10.90;60.27;97425.88;5044256;28;20508;-63
2022/01/03 00:12:51;;;;;;;4.50;1.00;;;;;;;10.90;59.91;97410.47;5027862;28;20061;-64
2022/01/03 00:15:19;;;;;;;3.15;0.70;;;;;;;10.89;60.22;97410.72;5027973;28;20052;-63
2022/01/03 00:17:48;;;;;;;2.30;0.70;;;;;;;10.87;59.99;97404.75;5026811;28;20552;-63
2022/01/03 00:20:15;;;;;;;7.47;1.05;;;;;;;10.85;59.59;97412.28;5027240;28;20057;-62
2022/01/03 00:23:08;;;;;;;9.23;1.23;;;;;;;10.79;59.64;97409.53;5020283;28;20038;-63
2022/01/03 00:25:43;;;;;;;2.70;0.73;;;;;;;10.89;59.35;97418.84;5027323;28;20057;-62
2022/01/03 00:28:25;;;;;;;2.67;0.85;;;;;;;10.80;59.50;97413.84;5027187;28;20048;-64
2022/01/03 00:30:55;;;;;;;4.97;1.30;;;;;;;10.71;59.92;97441.63;5025973;28;20049;-64
2022/01/03 00:33:23;;;;;;;2.95;0.73;;;;;;;10.73;59.66;97428.66;5026648;28;20497;-63
2022/01/03 00:35:58;;;;;;;2.92;0.70;;;;;;;10.74;59.20;97427.59;5026361;28;20047;-62
2022/01/03 00:38:27;;;;;;;8.75;1.10;;;;;;;10.78;58.91;97458.53;5026085;28;20056;-63
2022/01/03 00:40:55;;;;;;;4.10;0.80;;;;;;;10.79;58.99;97420.34;5026721;28;20046;-63
2022/01/03 00:43:22;;;;;;;3.38;0.47;;;;;;;10.77;58.49;97429.81;5021417;28;20038;-64
2022/01/03 00:45:53;;;;;;;3.03;0.68;;;;;;;10.77;57.85;97411.66;5024256;28;20034;-65
2022/01/03 00:48:20;;;;;;;5.13;0.77;;;;;;;10.83;57.53;97445.03;5026269;28;20053;-64
2022/01/03 00:50:47;;;;;;;4.65;1.00;;;;;;;10.78;57.56;97436.84;5026913;28;20041;-63
2022/01/03 00:53:16;;;;;;;3.65;0.60;;;;;;;10.82;58.17;97443.41;5026511;28;20037;-63
2022/01/03 00:56:04;;;;;;;4.38;0.90;;;;;;;10.71;58.53;97444.34;5027027;28;20045;-64
2022/01/03 00:58:50;;;;;;;7.90;1.30;;;;;;;10.68;58.76;97440.25;5011623;28;20532;-63
2022/01/03 01:01:19;;;;;;;2.88;0.80;;;;;;;10.71;58.93;97460.59;5026198;28;20045;-63
2022/01/03 01:03:51;;;;;;;5.13;1.08;;;;;;;10.73;58.93;97442.22;5034856;28;20049;-63
2022/01/03 01:06:19;;;;;;;2.40;0.70;;;;;;;10.63;59.36;97448.31;5041427;28;20045;-64
2022/01/03 01:08:48;;;;;;;4.35;0.90;;;;;;;10.59;59.70;97441.75;5026149;28;20060;-63
2022/01/03 01:11:16;;;;;;;3.28;0.80;;;;;;;10.63;59.70;97445.59;5026291;28;20045;-63
2022/01/03 01:13:44;;;;;;;7.30;3.05;;;;;;;10.60;59.87;97443.38;5025490;28;20111;-63
2022/01/03 01:16:12;;;;;;;3.83;0.90;;;;;;;10.63;60.04;97432.88;5025300;28;20071;-62
2022/01/03 01:18:45;;;;;;;4.72;1.10;;;;;;;10.56;60.45;97442.25;5024469;28;20045;-63
2022/01/03 01:21:13;;;;;;;3.47;1.20;;;;;;;10.49;60.36;97437.84;5021315;28;20394;-63
2022/01/03 01:23:42;;;;;;;4.63;0.93;;;;;;;10.51;60.59;97437.59;5023969;28;20053;-65
2022/01/03 01:28:57;;;;;;;3.28;0.80;;;;;;;10.29;61.53;97451.88;5025354;28;20110;-62
2022/01/03 01:31:24;;;;;;;1.98;0.70;;;;;;;10.56;60.59;97464.72;5025903;28;20044;-63
2022/01/03 01:33:54;;;;;;;5.43;0.85;;;;;;;10.62;60.08;97469.13;5025090;28;20118;-63
2022/01/03 01:36:27;;;;;;;2.88;0.80;;;;;;;10.61;60.26;97461.28;5023860;28;20756;-63
2022/01/03 01:38:59;;;;;;;7.68;1.00;;;;;;;10.62;60.11;97473.75;5025109;28;20053;-64
2022/01/03 01:41:28;;;;;;;3.15;0.77;;;;;;;10.61;60.43;97467.50;5026604;28;20127;-64
2022/01/03 01:43:59;;;;;;;1.40;0.55;;;;;;;10.62;60.65;97457.50;5026009;28;20075;-63
2022/01/03 01:46:27;;;;;;;4.03;1.05;;;;;;;10.56;61.03;97470.16;5024060;28;20064;-64
2022/01/03 01:49:05;;;;;;;6.43;1.13;;;;;;;10.61;60.66;97458.59;5024178;28;20061;-63
2022/01/03 01:51:34;;;;;;;2.47;0.82;;;;;;;10.57;60.78;97469.06;5041316;28;20041;-63
2022/01/03 01:54:04;;;;;;;4.55;1.23;;;;;;;10.62;60.49;97465.63;5024948;28;20425;-64
2022/01/03 01:56:53;;;;;;;4.97;0.70;;;;;;;10.63;60.17;97465.38;5029402;28;20041;-63
2022/01/03 01:59:31;;;;;;;5.80;1.00;;;;;;;10.61;59.87;97470.22;5027434;28;20038;-63
2022/01/03 02:02:06;;;;;;;4.30;1.00;;;;;;;10.63;59.82;97481.63;5023882;28;20092;-63
2022/01/03 02:05:02;;;;;;;2.00;0.60;;;;;;;10.54;60.11;97469.56;5041166;28;20617;-63
2022/01/03 02:07:44;;;;;;;5.70;0.93;;;;;;;10.58;60.18;97467.19;5024603;28;20061;-63
2022/01/03 02:10:14;;;;;;;3.85;0.88;;;;;;;10.44;60.95;97467.56;5021596;28;20038;-64
2022/01/03 02:12:47;;;;;;;3.78;0.98;;;;;;;10.55;60.65;97460.41;5025859;28;20524;-64
2022/01/03 02:15:17;;;;;;;6.55;2.08;;;;;;;10.41;61.16;97460.72;5041183;28;20136;-64
2022/01/03 02:17:48;;;;;;;2.38;0.73;;;;;;;10.35;61.25;97472.53;5004842;28;20067;-64
2022/01/03 02:20:21;;;;;;;2.58;0.85;;;;;;;10.38;61.58;97477.44;5024217;28;20513;-64
2022/01/03 02:22:50;;;;;;;2.72;0.95;;;;;;;10.48;61.23;97468.69;5026530;28;20140;-63
2022/01/03 02:25:22;;;;;;;8.73;1.00;;;;;;;10.40;61.56;97469.88;5044212;28;20073;-63
2022/01/03 02:27:50;;;;;;;1.65;0.52;;;;;;;10.39;61.67;97470.13;5045478;28;20264;-64
2022/01/03 02:30:20;;;;;;;5.13;1.10;;;;;;;10.34;61.63;97462.78;5045824;28;20048;-63
2022/01/03 02:32:47;;;;;;;4.18;0.77;;;;;;;10.41;61.34;97478.84;5028706;28;20045;-64
2022/01/03 02:35:15;;;;;;;2.15;0.60;;;;;;;10.46;60.63;97464.59;5024251;28;20054;-63
2022/01/03 02:37:44;;;;;;;6.13;1.10;;;;;;;10.36;60.72;97465.22;5024920;28;20049;-63
2022/01/03 02:40:14;;;;;;;8.95;1.00;;;;;;;10.40;60.25;97482.63;5024604;28;20427;-64
2022/01/03 02:42:42;;;;;;;4.88;1.13;;;;;;;10.51;59.85;97470.88;5023799;28;20663;-63
2022/01/03 02:45:16;;;;;;;3.97;0.68;;;;;;;10.38;60.39;97472.03;5029294;28;20042;-65
2022/01/03 02:47:47;;;;;;;2.28;0.60;;;;;;;10.43;60.03;97476.69;5027508;28;20041;-63
2022/01/03 02:50:15;;;;;;;4.22;1.10;;;;;;;10.34;60.54;97487.13;5028659;28;20037;-64
2022/01/03 02:52:42;;;;;;;4.53;1.52;;;;;;;10.32;60.29;97480.34;5027923;28;20041;-64
2022/01/03 02:55:11;;;;;;;4.57;0.85;;;;;;;10.22;60.64;97492.66;5028036;28;20053;-63
2022/01/03 02:57:46;;;;;;;3.45;1.00;;;;;;;10.27;60.17;97481.06;5040646;28;20567;-64
2022/01/03 03:00:17;;;;;;;3.20;0.75;;;;;;;10.27;60.16;97495.44;5049319;28;20115;-62
2022/01/03 03:02:44;;;;;;;7.97;1.00;;;;;;;10.28;60.31;97499.75;5035502;28;20045;-64
2022/01/03 03:05:12;;;;;;;4.40;0.80;;;;;;;10.19;60.68;97497.72;5027945;28;20072;-63
2022/01/03 03:07:40;;;;;;;5.57;0.82;;;;;;;10.14;61.01;97495.75;5026532;28;20053;-63
2022/01/03 03:10:13;;;;;;;5.20;1.00;;;;;;;10.10;61.21;97497.31;5026577;28;20424;-63
2022/01/03 03:12:40;;;;;;;4.47;0.90;;;;;;;10.13;60.86;97491.38;5026926;28;20046;-63
2022/01/03 03:15:09;;;;;;;4.32;0.98;;;;;;;10.13;60.75;97492.22;5028905;28;20092;-65
2022/01/03 03:17:39;;;;;;;3.08;0.70;;;;;;;10.10;60.61;97494.59;5027321;28;20046;-65
2022/01/03 03:20:06;;;;;;;6.47;1.17;;;;;;;10.14;60.88;97496.56;5027025;28;20057;-62
2022/01/03 03:22:33;;;;;;;4.28;0.80;;;;;;;10.07;61.27;97503.22;5026633;28;20132;-63
2022/01/03 03:25:05;;;;;;;7.10;1.27;;;;;;;10.06;61.00;97496.97;5033167;28;20053;-64
2022/01/03 03:27:34;;;;;;;3.70;0.60;;;;;;;10.07;61.15;97495.94;5046817;28;20052;-62
2022/01/03 03:30:19;;;;;;;6.07;1.50;;;;;;;10.02;61.07;97493.94;5048669;28;20048;-63
2022/01/03 03:32:49;;;;;;;2.72;0.63;;;;;;;10.07;60.97;97495.09;5032049;28;20124;-64
2022/01/03 03:35:16;;;;;;;8.45;1.40;;;;;;;10.04;61.20;97499.13;5027797;28;20057;-62
2022/01/03 03:37:43;;;;;;;4.55;0.80;;;;;;;10.01;60.81;97496.88;5027929;28;20069;-64
2022/01/03 03:40:11;;;;;;;5.45;1.00;;;;;;;9.99;61.27;97517.97;5033499;28;20037;-63
2022/01/03 03:42:40;;;;;;;3.97;0.80;;;;;;;9.96;61.09;97494.09;5047076;28;20131;-63
2022/01/03 03:45:08;;;;;;;5.63;0.73;;;;;;;9.90;61.43;97485.06;5048129;28;20488;-63
2022/01/03 03:47:35;;;;;;;5.95;0.90;;;;;;;9.76;61.80;97476.47;5047974;28;20496;-63
2022/01/03 03:50:03;;;;;;;10.30;1.30;;;;;;;9.83;62.16;97470.88;5046208;28;20045;-64
2022/01/03 03:52:29;;;;;;;4.05;0.75;;;;;;;9.72;62.30;97476.13;5046977;28;20059;-64
2022/01/03 03:54:56;;;;;;;7.88;1.20;;;;;;;9.74;62.44;97481.31;5046350;28;20126;-63
2022/01/03 03:57:23;;;;;;;5.22;1.20;;;;;;;9.85;61.85;97476.88;5033995;28;20056;-63
2022/01/03 03:59:51;;;;;;;4.07;1.02;;;;;;;9.80;62.20;97484.91;5033294;28;20041;-64
2022/01/03 04:02:18;;;;;;;4.63;0.60;;;;;;;9.84;62.16;97494.97;5038263;28;20045;-64
2022/01/03 04:04:45;;;;;;;5.80;1.08;;;;;;;9.67;63.45;97489.56;5027694;28;20124;-64
2022/01/03 04:07:12;;;;;;;4.78;0.73;;;;;;;9.57;63.98;97492.06;5038121;28;20033;-64
2022/01/03 04:09:39;;;;;;;4.25;0.80;;;;;;;9.40;64.31;97490.13;5029146;28;20079;-63
2022/01/03 04:12:06;;;;;;;3.20;0.77;;;;;;;9.24;65.18;97489.88;5045422;28;20063;-64
2022/01/03 04:14:33;;;;;;;1.98;0.98;;;;;;;9.31;65.30;97488.88;5045463;28;20041;-63
2022/01/03 04:17:00;;;;;;;3.55;0.70;;;;;;;9.26;66.28;97491.50;5046272;28;20060;-64
2022/01/03 04:19:27;;;;;;;2.28;0.70;;;;;;;9.15;66.72;97490.47;5045185;28;20118;-63
2022/01/03 04:21:54;;;;;;;7.30;1.60;;;;;;;9.09;67.41;97501.19;5046019;28;20068;-63
2022/01/03 04:24:20;;;;;;;4.25;0.93;;;;;;;9.12;68.50;97489.06;5045314;28;20051;-63
2022/01/03 04:26:49;;;;;;;4.07;0.88;;;;;;;9.01;70.64;97506.13;5045215;28;20073;-63
2022/01/03 04:29:16;;;;;;;3.97;1.20;;;;;;;8.95;72.95;97522.22;5046333;28;20049;-64
2022/01/03 04:31:43;;;;;;;5.97;0.98;;;;;;;8.51;74.10;97513.69;5023091;28;20045;-63
2022/01/03 04:34:10;;;;;;;4.47;1.40;;;;;;;8.11;76.49;97517.88;5042662;28;20045;-63
2022/01/03 04:36:38;;;;;;;4.47;0.77;;;;;;;7.97;79.86;97525.34;5025905;28;20527;-63
2022/01/03 04:39:05;;;;;;;4.95;1.30;;;;;;;7.68;81.03;97523.28;5025341;28;20240;-64
2022/01/03 04:41:33;;;;;;;5.03;0.77;;;;;;;7.53;82.14;97535.28;5043512;28;20055;-64
2022/01/03 04:44:00;;;;;;;7.35;1.40;;;;;;;7.37;84.01;97538.63;5046778;28;20056;-64
2022/01/03 04:46:27;;;;;;;4.25;0.80;;;;;;;7.21;85.02;97548.97;5037324;28;20063;-63
2022/01/03 04:48:54;;;;;;;4.68;1.20;;;;;;;7.14;85.48;97542.81;5025754;28;20053;-62
2022/01/03 04:51:21;;;;;;;3.78;0.88;;;;;;;7.13;85.40;97530.41;5025371;28;20125;-64
2022/01/03 04:53:50;;;;;;;7.07;1.20;;;;;;;7.08;85.73;97535.66;5025320;28;20124;-63
2022/01/03 04:56:18;;;;;;;12.38;1.58;;;;;;;7.05;86.52;97523.47;5026430;28;20041;-62
2022/01/03 04:58:45;;;;;;;6.47;1.35;;;;;;;7.00;86.98;97526.84;5025531;28;20500;-64
2022/01/03 05:01:12;;;;;;;8.10;1.40;;;;;;;7.00;87.09;97523.31;5027051;28;20044;-63
2022/01/03 05:03:39;;;;;;;4.60;0.80;;;;;;;7.04;87.11;97540.66;5024737;28;20234;-64
2022/01/03 05:06:06;;;;;;;4.28;0.93;;;;;;;7.08;87.55;97543.75;5041320;28;20037;-62
2022/01/03 05:08:33;;;;;;;5.00;1.45;;;;;;;7.10;87.11;97534.38;5025339;28;20072;-64
2022/01/03 05:11:01;;;;;;;7.72;1.17;;;;;;;7.08;87.27;97528.38;5024951;28;20586;-63
2022/01/03 05:13:32;;;;;;;6.30;0.95;;;;;;;7.14;86.85;97516.72;5025277;28;20100;-63
2022/01/03 05:16:00;;;;;;;4.65;1.13;;;;;;;7.16;87.24;97522.69;5026081;28;20460;-62
2022/01/03 05:18:28;;;;;;;5.93;1.10;;;;;;;7.11;87.25;97521.75;5025057;28;20044;-62
2022/01/03 05:20:56;;;;;;;3.70;1.25;;;;;;;7.03;87.85;97522.88;5025738;28;20037;-62
2022/01/03 05:23:23;;;;;;;6.45;1.35;;;;;;;7.02;87.85;97522.06;5025277;28;20136;-63
2022/01/03 05:25:50;;;;;;;9.75;1.27;;;;;;;7.05;87.79;97515.41;5025787;28;20064;-63
2022/01/03 05:28:17;;;;;;;6.65;1.65;;;;;;;7.01;87.03;97508.81;5026203;28;20037;-63
2022/01/03 05:30:44;;;;;;;8.27;1.10;;;;;;;7.03;87.34;97514.78;5008525;28;20049;-64
2022/01/03 05:33:11;;;;;;;7.53;1.77;;;;;;;7.01;87.46;97516.91;5025212;28;20050;-62
2022/01/03 05:35:38;;;;;;;7.90;2.00;;;;;;;6.96;87.25;97524.84;5024673;28;20077;-62
2022/01/03 05:38:06;;;;;;;4.82;1.50;;;;;;;6.98;87.38;97528.94;5023903;28;20132;-63
2022/01/03 05:40:33;;;;;;;5.15;0.90;;;;;;;6.99;87.29;97525.19;5024305;28;20664;-64
2022/01/03 05:43:00;;;;;;;5.95;1.23;;;;;;;7.05;87.49;97523.47;5024297;28;20050;-64
2022/01/03 05:45:27;;;;;;;7.60;1.45;;;;;;;7.13;86.83;97536.63;5024551;28;20046;-63
2022/01/03 05:47:55;;;;;;;7.60;1.30;;;;;;;7.13;87.01;97533.94;5024340;28;20049;-63
2022/01/03 05:50:22;;;;;;;5.40;1.13;;;;;;;7.10;86.90;97538.94;5024464;28;20057;-62
2022/01/03 05:52:50;;;;;;;3.22;0.80;;;;;;;7.18;86.68;97535.13;5024559;28;20144;-64
2022/01/03 05:55:19;;;;;;;12.00;1.25;;;;;;;7.31;85.18;97534.13;5024632;28;20069;-62
2022/01/03 05:57:46;;;;;;;7.93;1.40;;;;;;;7.32;85.07;97543.84;5038976;28;20128;-63
2022/01/03 06:00:19;;;;;;;;;;;;;;;7.28;85.59;97543.50;5041513;28;20432;-63
2022/01/03 06:02:46;;;;;;;8.40;1.48;;;;;;;7.22;86.18;97545.22;5031953;28;19921;-64
2022/01/03 06:05:32;;;;;;;7.72;1.40;;;;;;;7.21;86.15;97540.88;5025879;28;20460;-62
2022/01/03 06:07:59;;;;;;;5.53;1.30;;;;;;;7.18;86.14;97548.59;5025417;28;20045;-62
2022/01/03 06:10:30;;;;;;;5.38;1.38;;;;;;;7.28;85.59;97554.28;5024365;28;20628;-64
2022/01/03 06:12:57;;;;;;;3.28;0.80;;;;;;;7.25;85.70;97542.06;5028090;28;20058;-63
2022/01/03 06:15:25;;;;;;;8.27;1.38;;;;;;;7.31;84.72;97540.34;5004055;28;20084;-63
2022/01/03 06:17:53;;;;;;;9.55;1.02;;;;;;;7.31;84.76;97528.75;5004735;28;20045;-62
2022/01/03 06:20:21;;;;;;;7.75;1.48;;;;;;;7.25;85.08;97523.22;5008397;28;20607;-62
2022/01/03 06:22:48;;;;;;;8.73;1.55;;;;;;;7.22;85.90;97520.97;5022592;28;20079;-63
2022/01/03 06:25:15;;;;;;;5.88;1.17;;;;;;;7.10;85.85;97522.78;5025526;28;20044;-62
2022/01/03 06:27:42;;;;;;;7.28;1.50;;;;;;;7.08;85.89;97532.97;5027451;28;20092;-63
2022/01/03 06:30:11;;;;;;;7.05;1.63;;;;;;;7.07;86.35;97531.34;5029642;28;20111;-63
2022/01/03 06:32:40;;;;;;;;;;;;;;;7.07;86.33;97531.34;5028500;28;20053;-64
2022/01/03 06:35:07;;;;;;;9.05;1.30;;;;;;;6.96;86.79;97532.91;5028469;28;20441;-63
2022/01/03 06:37:35;;;;;;;9.63;1.30;;;;;;;6.98;86.53;97518.19;5027799;28;20180;-62
2022/01/03 06:40:08;;;;;;;6.93;1.13;;;;;;;7.01;86.41;97512.31;5027759;28;20494;-64
2022/01/03 06:42:35;;;;;;;7.50;0.93;;;;;;;7.09;84.68;97519.28;5028279;28;20045;-64
2022/01/03 06:45:03;;;;;;;5.30;1.25;;;;;;;7.10;84.91;97512.84;5027904;28;20124;-64
2022/01/03 06:47:29;;;;;;;5.13;0.82;;;;;;;7.06;84.67;97517.03;5027730;28;20044;-62
2022/01/03 06:49:56;;;;;;;8.38;0.95;;;;;;;7.03;84.77;97531.78;5027878;28;20052;-64
2022/01/03 06:52:23;;;;;;;3.88;0.77;;;;;;;7.06;85.03;97530.50;5027000;28;20042;-64
2022/01/03 06:54:50;;;;;;;4.47;1.33;;;;;;;7.00;85.44;97545.69;5027696;28;20038;-62
2022/01/03 06:57:16;;;;;;;5.90;0.82;;;;;;;7.08;85.11;97543.75;5038602;28;20403;-62
2022/01/03 06:59:45;;;;;;;8.20;1.55;;;;;;;7.13;85.06;97538.50;5047990;28;20140;-63
2022/01/03 07:02:11;;;;;;;5.93;1.02;;;;;;;7.16;85.16;97543.44;5027159;28;20057;-63
2022/01/03 07:04:39;;;;;;;5.70;1.40;;;;;;;7.13;85.45;97539.34;5029090;28;20507;-63
2022/01/03 07:07:06;;;;;;;6.32;1.30;;;;;;;7.03;86.13;97544.41;5028667;28;20049;-63
2022/01/03 07:09:33;;;;;;;2.90;1.15;;;;;;;6.98;86.39;97541.56;5028450;28;20095;-62
2022/01/03 07:11:59;;;;;;;5.80;1.13;;;;;;;6.90;86.66;97537.31;5028339;28;20029;-63
2022/01/03 07:19:49;;;;;;;7.20;1.08;;;;;;;7.06;86.17;97549.34;5028778;28;20052;-64
2022/01/03 07:22:16;;;;;;;8.20;1.02;;;;;;;7.13;84.97;97539.34;5028614;28;20050;-63
2022/01/03 07:24:43;;;;;;;5.43;1.05;;;;;;;7.15;85.76;97541.81;5027595;28;20084;-63
2022/01/03 07:27:11;;;;;;;8.63;1.38;;;;;;;7.16;85.50;97540.75;5026838;28;20045;-65
2022/01/03 07:29:39;;;;;;;8.02;1.30;;;;;;;7.17;85.89;97550.47;5027775;28;20051;-64
2022/01/03 07:32:07;;;;;;;6.70;1.02;;;;;;;7.20;86.13;97538.41;5026561;28;20064;-63
2022/01/03 07:34:35;;;;;;;7.03;1.10;;;;;;;7.21;85.92;97546.28;5025057;28;20037;-63
2022/01/03 07:37:02;;;;;;;4.63;1.08;;;;;;;7.21;86.04;97550.81;5035331;28;20061;-63
2022/01/03 07:39:30;;;;;;;6.82;1.10;;;;;;;7.25;86.57;97535.84;5022104;28;20572;-65
2022/01/03 07:41:58;;;;;;;8.30;1.25;;;;;;;7.15;87.21;97518.38;5024291;28;20140;-65
2022/01/03 07:44:27;;;;;;;11.15;1.23;;;;;;;7.06;87.09;97517.03;5024551;28;20041;-66
2022/01/03 07:46:54;;;;;;;4.97;1.00;;;;;;;6.98;87.51;97528.09;5025540;28;20536;-59
2022/01/03 07:49:22;;;;;;;5.38;1.40;;;;;;;6.95;90.50;97518.63;5026316;28;20052;-59
2022/01/03 07:51:49;;;;;;;14.13;1.75;;;;;;;6.85;89.86;97521.00;5025632;28;20053;-59
2022/01/03 07:54:16;;;;;;;5.00;1.20;;;;;;;6.79;90.70;97517.34;5036177;28;20503;-57
2022/01/03 07:56:43;;;;;;;4.57;1.30;;;;;;;6.71;90.90;97523.81;5029796;28;20094;-60
2022/01/03 07:59:10;;;;;;;3.60;1.35;;;;;;;6.72;91.12;97516.59;5026281;28;20071;-60
2022/01/03 08:01:40;;;;;;;7.43;1.17;;;;;;;6.69;91.08;97517.88;5024843;28;20505;-59
2022/01/03 08:04:08;;;;;;;8.02;1.20;;;;;;;6.67;91.21;97513.75;5026063;28;20048;-60
2022/01/03 08:06:45;;;;;;;6.72;1.58;;;;;;;6.66;91.22;97515.59;5025981;28;20077;-59
2022/01/03 08:09:12;;;;;;;4.55;1.25;;;;;;;6.69;91.79;97525.09;5029902;28;20045;-65
2022/01/03 08:11:39;;;;;;;7.15;1.42;;;;;;;6.79;90.35;97533.50;5024648;28;20049;-65
2022/01/03 08:14:05;;;;;;;4.53;1.33;;;;;;;6.93;89.30;97536.03;5020330;28;20513;-65
2022/01/03 08:16:33;;;;;;;3.53;1.02;;;;;;;6.97;88.15;97523.78;5028930;28;20489;-65
2022/01/03 08:19:00;;;;;;;12.40;1.63;;;;;;;6.95;88.54;97526.69;5014985;28;20041;-65
2022/01/03 08:21:28;;;;;;;3.55;1.13;;;;;;;6.93;88.71;97520.69;5029500;28;20084;-64
2022/01/03 08:23:55;;;;;;;3.72;0.85;;;;;;;7.00;90.07;97515.22;5032610;28;20131;-64
2022/01/03 08:26:22;;;;;;;4.15;1.08;;;;;;;7.01;89.53;97511.50;5037559;28;20053;-64
2022/01/03 08:28:49;;;;;;;7.40;1.10;;;;;;;6.98;89.10;97510.09;5036469;28;20559;-64
2022/01/03 08:31:16;;;;;;;7.35;1.40;;;;;;;6.83;90.13;97513.16;5036751;28;20045;-63
2022/01/03 08:33:43;;;;;;;4.80;1.23;;;;;;;6.89;90.00;97523.03;5023537;28;20050;-63
2022/01/03 08:36:11;;;;;;;6.43;1.40;;;;;;;6.97;90.01;97538.03;5037155;28;20065;-63
2022/01/03 08:38:38;;;;;;;5.18;1.42;;;;;;;7.00;90.04;97539.47;5045193;28;20049;-63
2022/01/03 08:41:06;;;;;;;6.25;1.73;;;;;;;6.96;90.04;97546.38;5040265;28;20137;-62
2022/01/03 08:43:33;;;;;;;9.43;1.85;;;;;;;6.73;91.43;97540.59;5024632;28;20055;-63
2022/01/03 08:45:59;;;;;;;4.72;1.60;;;;;;;6.74;91.97;97530.63;5040094;28;20045;-62
2022/01/03 08:48:28;;;;;;;6.72;1.80;;;;;;;6.81;91.82;97531.38;5043410;28;20140;-62
2022/01/03 08:50:56;;;;;;;8.80;2.15;;;;;;;6.79;92.05;97520.03;5038501;28;20073;-63
2022/01/03 08:53:26;;;;;;;12.10;2.08;;;;;;;6.86;91.75;97534.22;5045183;28;20048;-61
2022/01/03 08:55:54;;;;;;;7.97;1.73;;;;;;;6.94;91.54;97513.44;5023986;28;20116;-63
2022/01/03 08:58:22;;;;;;;6.07;1.73;;;;;;;6.95;91.42;97510.53;5023146;28;20053;-64
2022/01/03 09:00:50;;;;;;;10.77;1.60;;;;;;;7.20;87.36;97517.69;5029531;28;20055;-63
2022/01/03 09:03:18;;;;;;;9.43;1.42;;;;;;;7.46;85.48;97520.28;5036053;28;20102;-63
2022/01/03 09:05:46;;;;;;;6.32;1.20;;;;;;;7.63;84.96;97517.78;5038817;28;20111;-63
2022/01/03 09:08:13;;;;;;;9.13;1.00;;;;;;;7.86;81.85;97510.78;5035110;28;20074;-62
2022/01/03 09:10:40;;;;;;;4.75;1.23;;;;;;;8.02;80.57;97510.13;5038609;28;20045;-64
2022/01/03 09:13:07;;;;;;;5.38;0.98;;;;;;;8.16;79.96;97510.75;5041494;28;20103;-63
2022/01/03 09:15:36;;;;;;;5.70;1.25;;;;;;;8.20;78.09;97508.38;5029066;28;20075;-64
2022/01/03 09:18:06;;;;;;;6.68;1.02;;;;;;;8.27;79.51;97508.28;5030450;28;20053;-64
2022/01/03 09:20:33;;;;;;;7.85;1.27;;;;;;;8.35;78.73;97507.09;5041719;28;20512;-65
2022/01/03 09:23:08;;;;;;;6.55;1.13;;;;;;;8.34;77.70;97498.19;5030383;28;20757;-65
2022/01/03 09:30:49;;;;;;;4.28;1.00;;;;;;;8.39;79.73;97492.91;5029464;28;20125;-64
2022/01/03 09:33:16;;;;;;;9.82;1.23;;;;;;;8.38;79.60;97493.16;5024299;28;20045;-64
2022/01/03 09:35:44;;;;;;;5.43;0.88;;;;;;;8.45;79.08;97485.75;5023750;28;20045;-64
2022/01/03 09:38:11;;;;;;;6.60;1.00;;;;;;;8.52;77.96;97483.75;5036642;28;20223;-64
2022/01/03 09:40:41;;;;;;;6.78;1.63;;;;;;;8.56;76.27;97495.75;5022401;28;20076;-65
2022/01/03 09:43:14;;;;;;;8.10;0.98;;;;;;;8.55;76.55;97496.00;5022588;28;20587;-64
2022/01/03 09:45:45;;;;;;;3.90;1.35;;;;;;;8.58;75.93;97482.84;5030814;28;20524;-64
2022/01/03 09:48:14;;;;;;;1.83;0.57;;;;;;;8.65;75.95;97490.81;5032962;28;20052;-64
2022/01/03 09:50:43;;;;;;;3.60;0.80;;;;;;;8.64;75.49;97493.75;5027011;28;20038;-64
2022/01/03 09:53:11;;;;;;;8.00;1.38;;;;;;;8.69;74.57;97497.38;5018847;28;20045;-64
2022/01/03 09:55:40;;;;;;;6.88;1.02;;;;;;;8.73;74.50;97497.72;5020884;28;20529;-64
2022/01/03 09:58:10;;;;;;;2.92;1.05;;;;;;;8.82;74.13;97490.09;5029308;28;20099;-63
2022/01/03 10:00:36;;;;;;;4.80;0.88;;;;;;;8.90;72.41;97495.13;5021047;28;20048;-64
2022/01/03 10:03:06;;;;;;;3.88;0.93;;;;;;;9.02;73.30;97488.84;5009548;28;20042;-64
2022/01/03 10:05:34;;;;;;;5.47;1.00;;;;;;;9.05;72.05;97485.69;5022832;28;20069;-63
2022/01/03 10:08:01;;;;;;;6.13;1.23;;;;;;;9.07;71.94;97481.69;5010301;28;20273;-67
2022/01/03 10:10:34;;;;;;;4.78;1.30;;;;;;;9.06;71.90;97484.63;5023171;28;20053;-64
2022/01/03 10:13:02;;;;;;;7.43;1.20;;;;;;;9.08;71.22;97483.34;5021438;28;20115;-65
2022/01/03 10:15:29;;;;;;;5.40;0.93;;;;;;;9.13;71.98;97482.59;5023348;28;20111;-66
2022/01/03 10:17:57;;;;;;;4.32;1.00;;;;;;;9.13;71.91;97474.50;5023409;28;20053;-65
2022/01/03 10:20:29;;;;;;;5.15;0.80;;;;;;;9.09;72.17;97482.28;5023121;28;20056;-64
2022/01/03 10:23:11;;;;;;;6.05;1.50;;;;;;;9.04;72.14;97474.09;5022918;28;20038;-64
2022/01/03 10:25:38;;;;;;;5.30;1.30;;;;;;;9.04;72.89;97473.25;5010666;28;20057;-64
2022/01/03 10:28:05;;;;;;;5.30;1.30;;;;;;;9.02;73.02;97469.94;5019929;28;20045;-65
2022/01/03 10:30:45;;;;;;;4.70;0.80;;;;;;;9.12;72.47;97475.56;5019050;28;20772;-66
2022/01/03 10:33:19;;;;;;;5.50;1.27;;;;;;;9.04;73.06;97479.47;5021881;28;20449;-66
2022/01/03 10:35:56;;;;;;;7.68;1.10;;;;;;;9.11;72.47;97477.44;5035903;28;20052;-65
2022/01/03 10:38:40;;;;;;;6.53;1.20;;;;;;;9.11;72.49;97480.16;5010962;28;20037;-65
2022/01/03 10:41:16;;;;;;;6.55;1.30;;;;;;;9.09;73.15;97473.34;5022407;28;20108;-63
2022/01/03 10:43:45;;;;;;;5.75;1.13;;;;;;;9.21;71.83;97474.13;5025614;28;20038;-63
2022/01/03 10:46:19;;;;;;;6.18;1.08;;;;;;;9.26;72.30;97472.59;5020478;28;20125;-65
2022/01/03 10:48:50;;;;;;;4.95;0.80;;;;;;;9.35;72.35;97463.03;5027941;28;20030;-65
2022/01/03 10:51:24;;;;;;;5.78;0.80;;;;;;;9.44;70.81;97464.28;5021088;28;20045;-63
2022/01/03 10:53:53;;;;;;;5.38;0.90;;;;;;;9.48;71.56;97465.44;5021419;28;20053;-66
2022/01/03 10:56:33;;;;;;;3.30;0.70;;;;;;;9.55;70.92;97461.78;5024568;28;20543;-65
2022/01/03 10:59:21;;;;;;;5.00;1.23;;;;;;;9.54;71.32;97460.13;5020578;28;20045;-68
2022/01/03 11:02:11;;;;;;;2.72;0.82;;;;;;;9.48;71.63;97454.63;5014695;28;20064;-67
2022/01/03 11:04:54;;;;;;;5.18;0.80;;;;;;;9.54;70.63;97454.72;5022347;28;20041;-66
2022/01/03 11:13:07;;;;;;;4.68;1.00;;;;;;;9.88;70.04;97438.53;5030568;28;20075;-63
2022/01/03 11:15:39;;;;;;;5.40;1.90;;;;;;;9.88;69.47;97438.53;5025068;28;20052;-63
2022/01/03 11:18:18;;;;;;;4.07;0.75;;;;;;;10.01;69.10;97435.50;5019430;28;20156;-64
2022/01/03 11:20:49;;;;;;;5.00;0.95;;;;;;;10.07;67.88;97436.41;5024792;28;20076;-64
2022/01/03 11:23:22;;;;;;;6.43;1.05;;;;;;;10.22;68.68;97429.56;5025710;28;20052;-64
2022/01/03 11:25:52;;;;;;;6.05;1.33;;;;;;;10.23;67.48;97433.91;5025987;28;20331;-63
2022/01/03 11:28:20;;;;;;;4.78;1.10;;;;;;;10.32;66.62;97427.00;5023480;28;20661;-66
2022/01/03 11:30:48;;;;;;;4.82;0.98;;;;;;;10.27;67.24;97426.94;5025844;28;20505;-63
2022/01/03 11:33:15;;;;;;;4.63;1.35;;;;;;;10.13;67.88;97418.34;5025578;28;20073;-66
2022/01/03 11:35:47;;;;;;;5.07;1.10;;;;;;;10.20;66.64;97421.69;5028639;28;20120;-66
2022/01/03 11:38:20;;;;;;;7.95;1.60;;;;;;;10.22;66.74;97416.88;5014745;28;20049;-63
2022/01/03 11:40:48;;;;;;;4.35;1.08;;;;;;;10.21;66.90;97409.00;5024297;28;20049;-63
2022/01/03 11:43:16;;;;;;;10.82;1.10;;;;;;;10.33;66.01;97406.19;5025407;28;20151;-63
2022/01/03 11:45:43;;;;;;;4.72;0.90;;;;;;;10.34;66.38;97397.00;5024871;28;20128;-64
2022/01/03 11:48:11;;;;;;;4.70;0.95;;;;;;;10.29;65.01;97384.22;5025882;28;20061;-65
2022/01/03 11:50:40;;;;;;;5.47;1.10;;;;;;;10.39;65.06;97380.81;5025216;28;20049;-65
2022/01/03 11:53:08;;;;;;;6.93;1.38;;;;;;;10.33;65.21;97389.94;5008444;28;20057;-64
2022/01/03 11:55:36;;;;;;;3.50;0.88;;;;;;;10.27;65.18;97387.19;5014275;28;20041;-60
2022/01/03 12:03:39;;;;;;;2.67;0.63;;;;;;;10.37;63.04;97372.97;5023933;28;20631;-65
2022/01/03 12:06:09;;;;;;;5.60;0.75;;;;;;;10.37;61.84;97370.25;5030740;28;20049;-66
2022/01/03 12:08:39;;;;;;;3.53;0.80;;;;;;;10.43;61.28;97359.50;5023138;28;20053;-66
2022/01/03 12:11:20;;;;;;;3.00;0.60;;;;;;;10.39;61.41;97359.97;5022117;28;20084;-64
2022/01/03 12:14:09;;;;;;;3.30;0.88;;;;;;;10.46;61.04;97359.81;5025632;28;20045;-62